.
WxDataArchive / Data Records for 2006-02-05
2006-02-04 February 2006 2006-02-06

Data Records for Sunday, 05 February 2006

Time	Temp	Chill	HIndex	Humid	Dewpt	 Wind 	HiWind	WindDir	Rain 	Barom 
-----	----	-----	------	-----	-----	------	------	-------	-----	----- 
00:00	30.4	26.2	30.4	84	26.2	4	9	315	0.00	29.518 
00:05	30.4	24.3	30.4	83	25.9	6	12	315	0.00	29.518 
00:10	30.4	25.2	30.4	83	25.9	5	10	315	0.00	29.518 
00:15	30.4	26.2	30.4	83	25.9	4	12	315	0.00	29.524 
00:20	30.3	26.1	30.3	84	26.1	4	7	315	0.00	29.524 
00:25	30.3	26.1	30.3	84	26.1	4	11	315	0.00	29.524 
00:30	30.1	30.1	30.1	84	25.9	3	6	315	0.00	29.524 
00:35	30.1	30.1	30.1	85	26.1	3	5	315	0.00	29.524 
00:40	30.0	25.8	30.0	85	26.0	4	12	315	0.00	29.524 
00:45	30.0	24.7	30.0	84	25.8	5	13	315	0.00	29.525 
00:50	29.8	25.5	29.8	84	25.6	4	9	315	0.00	29.525 
00:55	29.8	29.8	29.8	85	25.9	3	6	315	0.00	29.525 
01:00	29.8	25.5	29.8	84	25.6	4	9	315	0.00	29.525 
01:05	29.8	24.5	29.8	84	25.6	5	13	315	0.00	29.525 
01:10	29.8	24.5	29.8	84	25.6	5	12	315	0.00	29.525 
01:15	29.7	25.4	29.7	84	25.5	4	7	315	0.00	29.524 
01:20	29.7	25.4	29.7	84	25.5	4	11	315	0.00	29.524 
01:25	29.7	25.4	29.7	84	25.5	4	7	315	0.00	29.524 
01:30	29.5	25.2	29.5	84	25.3	4	7	315	0.00	29.524 
01:35	29.5	25.2	29.5	84	25.3	4	11	315	0.00	29.524 
01:40	29.5	25.2	29.5	84	25.3	4	11	315	0.00	29.524 
01:45	29.5	24.1	29.5	84	25.3	5	13	315	0.00	29.526 
01:50	29.4	24.0	29.4	84	25.2	5	12	315	0.00	29.526 
01:55	29.4	25.1	29.4	83	24.9	4	11	315	0.00	29.526 
02:00	29.4	24.0	29.4	83	24.9	5	12	315	0.00	29.527 
02:05	29.3	25.0	29.3	83	24.8	4	11	315	0.00	29.527 
02:10	29.3	25.0	29.3	83	24.8	4	10	315	0.00	29.527 
02:15	29.1	24.7	29.1	83	24.6	4	10	315	0.00	29.531 
02:20	29.1	24.7	29.1	84	24.9	4	10	315	0.00	29.531 
02:25	29.0	23.6	29.0	83	24.5	5	14	315	0.00	29.531 
02:30	29.0	23.6	29.0	83	24.5	5	9	315	0.00	29.532 
02:35	28.8	24.4	28.8	84	24.6	4	8	315	0.00	29.532 
02:40	28.8	24.4	28.8	86	25.2	4	9	315	0.00	29.532 
02:45	28.7	22.3	28.7	85	24.8	6	14	315	0.00	29.539 
02:50	28.5	24.0	28.5	85	24.6	4	11	315	0.00	29.539 
02:55	28.4	23.9	28.4	86	24.8	4	7	315	0.00	29.539 
03:00	28.4	23.9	28.4	86	24.8	4	10	315	0.00	29.538 
03:05	28.2	22.6	28.2	86	24.6	5	14	315	0.00	29.538 
03:10	28.2	23.7	28.2	86	24.6	4	10	315	0.00	29.538 
03:15	28.1	23.6	28.1	86	24.5	4	10	315	0.00	29.539 
03:20	28.1	22.5	28.1	85	24.2	5	13	315	0.00	29.539 
03:25	27.9	22.3	27.9	85	24.0	5	10	315	0.00	29.539 
03:30	27.9	22.3	27.9	85	24.0	5	17	315	0.00	29.536 
03:35	27.8	23.2	27.8	85	23.9	4	10	315	0.00	29.536 
03:40	27.8	22.1	27.8	85	23.9	5	10	315	0.00	29.536 
03:45	27.8	21.2	27.8	84	23.6	6	11	315	0.00	29.534 
03:50	27.6	21.9	27.6	85	23.7	5	10	315	0.00	29.534 
03:55	27.6	21.9	27.6	84	23.4	5	12	315	0.00	29.534 
04:00	27.5	21.8	27.5	84	23.3	5	12	315	0.00	29.531 
04:05	27.5	22.9	27.5	84	23.3	4	10	315	0.00	29.531 
04:10	27.3	22.6	27.3	85	23.4	4	7	315	0.00	29.531 
04:15	27.2	22.5	27.2	85	23.3	4	7	315	0.00	29.531 
04:20	27.2	22.5	27.2	86	23.6	4	9	315	0.00	29.531 
04:25	27.0	22.3	27.0	86	23.4	4	12	315	0.00	29.531 
04:30	27.0	21.2	27.0	85	23.1	5	12	315	0.00	29.532 
04:35	26.9	21.1	26.9	85	23.0	5	12	315	0.00	29.532 
04:40	26.9	22.2	26.9	85	23.0	4	9	315	0.00	29.532 
04:45	26.9	22.2	26.9	85	23.0	4	14	315	0.00	29.533 
04:50	26.7	20.9	26.7	85	22.8	5	17	315	0.00	29.533 
04:55	26.7	22.0	26.7	86	23.1	4	8	315	0.00	29.533 
05:00	26.6	20.7	26.6	87	23.3	5	10	315	0.00	29.540 
05:05	26.6	21.8	26.6	85	22.7	4	8	315	0.00	29.540 
05:10	26.6	20.7	26.6	85	22.7	5	11	315	0.00	29.540 
05:15	26.6	20.7	26.6	85	22.7	5	13	315	0.00	29.542 
05:20	26.6	20.7	26.6	84	22.4	5	14	315	0.00	29.542 
05:25	26.4	19.6	26.4	84	22.2	6	14	315	0.00	29.542 
05:30	26.4	19.6	26.4	84	22.2	6	18	315	0.00	29.544 
05:35	26.4	21.6	26.4	84	22.2	4	16	270	0.00	29.544 
05:40	26.3	20.4	26.3	85	22.4	5	12	270	0.00	29.544 
05:45	26.3	20.4	26.3	84	22.1	5	11	270	0.00	29.546 
05:50	26.3	20.4	26.3	84	22.1	5	15	270	0.00	29.546 
05:55	26.3	20.4	26.3	84	22.1	5	14	270	0.00	29.546 
06:00	26.3	21.5	26.3	84	22.1	4	11	270	0.00	29.551 
06:05	26.1	20.1	26.1	84	21.9	5	12	270	0.00	29.551 
06:10	26.1	20.1	26.1	84	21.9	5	13	270	0.00	29.551 
06:15	26.0	21.1	26.0	84	21.8	4	14	270	0.00	29.559 
06:20	26.0	21.1	26.0	84	21.8	4	14	270	0.00	29.559 
06:25	26.0	21.1	26.0	84	21.8	4	15	270	0.00	29.559 
06:30	26.0	21.1	26.0	84	21.8	4	10	270	0.00	29.559 
06:35	26.0	21.1	26.0	84	21.8	4	9	270	0.00	29.559 
06:40	26.0	20.0	26.0	83	21.6	5	13	270	0.00	29.559 
06:45	25.8	19.8	25.8	83	21.4	5	11	270	0.00	29.561 
06:50	26.0	21.1	26.0	83	21.6	4	7	270	0.00	29.561 
06:55	25.8	19.8	25.8	83	21.4	5	13	270	0.00	29.561 
07:00	25.8	19.8	25.8	83	21.4	5	13	270	0.00	29.562 
07:05	25.8	18.8	25.8	83	21.4	6	14	270	0.00	29.562 
07:10	25.8	18.8	25.8	83	21.4	6	14	270	0.00	29.562 
07:15	25.8	19.8	25.8	83	21.4	5	15	270	0.00	29.569 
07:20	25.8	19.8	25.8	82	21.1	5	13	270	0.00	29.569 
07:25	25.8	19.8	25.8	82	21.1	5	11	270	0.00	29.569 
07:30	25.8	19.8	25.8	82	21.1	5	14	270	0.00	29.574 
07:35	25.7	19.7	25.7	83	21.3	5	12	270	0.00	29.574 
07:40	25.7	20.8	25.7	83	21.3	4	12	270	0.00	29.574 
07:45	25.7	20.8	25.7	83	21.3	4	11	270	0.00	29.578 
07:50	25.7	19.7	25.7	82	21.0	5	12	270	0.00	29.578 
07:55	25.8	18.8	25.8	82	21.1	6	14	270	0.00	29.578 
08:00	25.8	19.8	25.8	82	21.1	5	11	270	0.00	29.579 
08:05	25.8	19.8	25.8	82	21.1	5	16	270	0.00	29.579 
08:10	25.8	19.8	25.8	81	20.8	5	13	270	0.00	29.579 
08:15	25.8	18.8	25.8	82	21.1	6	13	270	0.00	29.583 
08:20	25.8	19.8	25.8	82	21.1	5	13	270	0.00	29.583 
08:25	25.7	18.7	25.7	82	21.0	6	14	270	0.00	29.583 
08:30	25.7	19.7	25.7	82	21.0	5	10	270	0.00	29.590 
08:35	25.7	20.8	25.7	82	21.0	4	13	270	0.00	29.590 
08:40	25.7	18.7	25.7	82	21.0	6	15	270	0.00	29.590 
08:45	25.7	20.8	25.7	82	21.0	4	14	270	0.00	29.592 
08:50	25.7	18.7	25.7	81	20.7	6	15	270	0.00	29.592 
08:55	25.7	20.8	25.7	82	21.0	4	10	270	0.00	29.592 
09:00	25.7	19.7	25.7	82	21.0	5	13	270	0.00	29.594 
09:05	25.7	19.7	25.7	82	21.0	5	15	270	0.00	29.594 
09:10	25.7	19.7	25.7	82	21.0	5	13	270	0.00	29.594 
09:15	25.8	19.8	25.8	82	21.1	5	13	270	0.00	29.593 
09:20	25.8	20.9	25.8	82	21.1	4	11	270	0.00	29.593 
09:25	25.8	19.8	25.8	81	20.8	5	15	270	0.00	29.593 
09:30	25.8	19.8	25.8	81	20.8	5	16	270	0.00	29.594 
09:35	25.8	19.8	25.8	82	21.1	5	11	270	0.00	29.594 
09:40	26.0	21.1	26.0	81	21.0	4	11	270	0.00	29.594 
09:45	26.0	21.1	26.0	81	21.0	4	11	270	0.00	29.595 
09:50	26.0	21.1	26.0	81	21.0	4	9	270	0.00	29.595 
09:55	26.0	19.1	26.0	81	21.0	6	18	270	0.00	29.595 
10:00	26.1	20.1	26.1	81	21.1	5	12	270	0.00	29.598 
10:05	26.1	21.3	26.1	81	21.1	4	10	270	0.00	29.598 
10:10	26.1	20.1	26.1	80	20.8	5	11	270	0.00	29.598 
10:15	26.1	20.1	26.1	80	20.8	5	13	270	0.00	29.607 
10:20	26.3	21.5	26.3	80	21.0	4	11	270	0.00	29.607 
10:25	26.3	20.4	26.3	80	21.0	5	14	270	0.00	29.607 
10:30	26.4	21.6	26.4	81	21.4	4	9	270	0.00	29.612 
10:35	26.4	20.5	26.4	81	21.4	5	11	270	0.00	29.612 
10:40	26.4	21.6	26.4	80	21.1	4	11	270	0.00	29.612 
10:45	26.4	20.5	26.4	81	21.4	5	12	270	0.00	29.613 
10:50	26.4	20.5	26.4	81	21.4	5	11	270	0.00	29.613 
10:55	26.3	20.4	26.3	81	21.3	5	14	270	0.00	29.613 
11:00	26.3	19.4	26.3	81	21.3	6	17	270	0.00	29.623 
11:05	26.3	19.4	26.3	81	21.3	6	15	270	0.00	29.623 
11:10	26.4	20.5	26.4	81	21.4	5	15	270	0.00	29.623 
11:15	26.4	20.5	26.4	81	21.4	5	13	270	0.00	29.628 
11:20	26.6	21.8	26.6	81	21.6	4	12	270	0.00	29.628 
11:25	26.7	20.9	26.7	81	21.7	5	14	270	0.00	29.628 
11:30	26.7	19.9	26.7	81	21.7	6	12	270	0.00	29.639 
11:35	26.9	21.1	26.9	80	21.6	5	14	270	0.00	29.639 
11:40	27.0	21.2	27.0	81	22.0	5	11	270	0.00	29.639 
11:45	27.2	22.5	27.2	81	22.2	4	11	270	0.00	29.643 
11:50	27.5	22.9	27.5	80	22.2	4	9	270	0.00	29.643 
11:55	27.5	21.8	27.5	80	22.2	5	11	270	0.00	29.643 
12:00	27.5	21.8	27.5	79	21.9	5	12	270	0.00	29.645 
12:05	27.6	21.0	27.6	79	22.0	6	14	270	0.00	29.645 
12:10	27.8	22.1	27.8	79	22.2	5	12	270	0.00	29.645 
12:15	28.1	23.6	28.1	80	22.7	4	10	270	0.00	29.652 
12:20	28.1	23.6	28.1	80	22.7	4	11	270	0.00	29.652 
12:25	28.1	21.6	28.1	78	22.1	6	14	270	0.00	29.652 
12:30	28.2	21.7	28.2	79	22.5	6	17	270	0.00	29.655 
12:35	28.2	22.6	28.2	78	22.2	5	11	270	0.00	29.655 
12:40	28.4	21.9	28.4	77	22.1	6	15	270	0.00	29.655 
12:45	28.4	21.2	28.4	77	22.1	7	14	270	0.00	29.655 
12:50	28.4	21.9	28.4	77	22.1	6	15	270	0.00	29.655 
12:55	28.5	23.0	28.5	77	22.2	5	13	270	0.00	29.655 
13:00	29.0	23.6	29.0	77	22.7	5	11	270	0.00	29.656 
13:05	29.3	23.0	29.3	77	23.0	6	13	270	0.00	29.656 
13:10	29.4	23.1	29.4	76	22.8	6	14	270	0.00	29.656 
13:15	29.7	24.4	29.7	77	23.4	5	15	270	0.00	29.661 
13:20	29.5	23.3	29.5	75	22.6	6	17	270	0.00	29.661 
13:25	29.5	23.3	29.5	76	22.9	6	13	270	0.00	29.661 
13:30	29.8	23.6	29.8	75	22.9	6	14	270	0.00	29.660 
13:35	30.0	24.7	30.0	76	23.4	5	15	270	0.00	29.660 
13:40	30.0	24.7	30.0	76	23.4	5	14	270	0.00	29.660 
13:45	29.7	23.5	29.7	75	22.8	6	16	270	0.00	29.669 
13:50	29.4	22.4	29.4	76	22.8	7	16	270	0.00	29.669 
13:55	29.3	22.2	29.3	76	22.7	7	15	270	0.00	29.669 
14:00	29.3	22.2	29.3	77	23.0	7	15	270	0.00	29.670 
14:05	29.3	23.0	29.3	77	23.0	6	15	270	0.00	29.670 
14:10	29.0	21.9	29.0	77	22.7	7	19	270	0.00	29.670 
14:15	28.8	23.3	28.8	78	22.8	5	14	270	0.00	29.674 
14:20	28.8	22.4	28.8	78	22.8	6	13	270	0.00	29.674 
14:25	28.8	22.4	28.8	77	22.5	6	14	270	0.00	29.674 
14:30	28.7	22.3	28.7	78	22.7	6	14	270	0.00	29.675 
14:35	28.5	22.1	28.5	78	22.5	6	12	270	0.00	29.675 
14:40	28.4	21.9	28.4	78	22.4	6	14	270	0.00	29.675 
14:45	28.4	22.8	28.4	78	22.4	5	20	270	0.00	29.678 
14:50	28.4	21.9	28.4	78	22.4	6	20	270	0.00	29.678 
14:55	28.4	22.8	28.4	78	22.4	5	13	270	0.00	29.678 
15:00	28.4	21.9	28.4	79	22.7	6	14	270	0.00	29.681 
15:05	28.4	22.8	28.4	79	22.7	5	11	270	0.00	29.681 
15:10	28.4	23.9	28.4	80	23.0	4	7	270	0.00	29.681 
15:15	28.4	22.8	28.4	79	22.7	5	12	270	0.00	29.687 
15:20	28.4	23.9	28.4	78	22.4	4	11	270	0.00	29.687 
15:25	28.2	22.6	28.2	79	22.5	5	11	270	0.00	29.687 
15:30	28.1	21.6	28.1	79	22.4	6	14	270	0.00	29.688 
15:35	28.1	22.5	28.1	81	23.0	5	12	270	0.00	29.688 
15:40	28.1	22.5	28.1	79	22.4	5	17	270	0.00	29.688 
15:45	28.1	22.5	28.1	80	22.7	5	10	270	0.00	29.693 
15:50	27.9	21.3	27.9	79	22.2	6	13	270	0.00	29.693 
15:55	27.9	21.3	27.9	79	22.2	6	14	270	0.00	29.693 
16:00	27.8	21.2	27.8	79	22.2	6	12	270	0.00	29.703 
16:05	27.8	21.2	27.8	80	22.4	6	14	270	0.00	29.703 
16:10	27.8	22.1	27.8	80	22.4	5	13	270	0.00	29.703 
16:15	27.6	21.9	27.6	80	22.3	5	13	270	0.00	29.712 
16:20	27.5	21.8	27.5	81	22.4	5	16	270	0.00	29.712 
16:25	27.3	21.6	27.3	81	22.3	5	15	270	0.00	29.712 
16:30	27.3	27.3	27.3	81	22.3	3	14	270	0.00	29.721 
16:35	27.2	20.5	27.2	80	21.9	6	13	270	0.00	29.721 
16:40	27.2	21.4	27.2	81	22.2	5	18	270	0.00	29.721 
16:45	27.2	22.5	27.2	82	22.4	4	13	270	0.00	29.726 
16:50	27.2	22.5	27.2	82	22.4	4	14	270	0.00	29.726 
16:55	27.2	22.5	27.2	83	22.7	4	9	270	0.00	29.726 
17:00	27.0	20.3	27.0	82	22.3	6	13	270	0.00	29.733 
17:05	26.9	21.1	26.9	81	21.9	5	14	270	0.00	29.733 
17:10	26.9	21.1	26.9	82	22.2	5	16	270	0.00	29.733 
17:15	27.0	21.2	27.0	82	22.3	5	11	270	0.00	29.739 
17:20	27.0	21.2	27.0	82	22.3	5	12	270	0.00	29.739 
17:25	27.0	22.3	27.0	83	22.5	4	12	270	0.00	29.739 
17:30	27.0	27.0	27.0	83	22.5	3	9	270	0.00	29.744 
17:35	27.2	22.5	27.2	82	22.4	4	11	270	0.00	29.744 
17:40	27.2	22.5	27.2	83	22.7	4	10	270	0.00	29.744 
17:45	27.2	22.5	27.2	82	22.4	4	13	270	0.00	29.756 
17:50	27.2	27.2	27.2	82	22.4	3	7	270	0.00	29.756 
17:55	27.2	22.5	27.2	82	22.4	4	9	270	0.00	29.756 
18:00	27.2	22.5	27.2	82	22.4	4	13	270	0.00	29.760 
18:05	27.2	22.5	27.2	82	22.4	4	14	270	0.00	29.760 
18:10	27.2	22.5	27.2	82	22.4	4	8	270	0.00	29.760 
18:15	27.2	22.5	27.2	82	22.4	4	7	270	0.00	29.770 
18:20	27.2	22.5	27.2	83	22.7	4	11	270	0.00	29.770 
18:25	27.2	21.4	27.2	82	22.4	5	16	270	0.00	29.770 
18:30	27.2	27.2	27.2	82	22.4	3	11	270	0.00	29.782 
18:35	27.2	27.2	27.2	82	22.4	3	7	270	0.00	29.782 
18:40	27.2	27.2	27.2	83	22.7	3	9	270	0.00	29.782 
18:45	27.0	22.3	27.0	82	22.3	4	9	270	0.00	29.790 
18:50	27.0	22.3	27.0	82	22.3	4	10	270	0.00	29.790 
18:55	27.0	22.3	27.0	82	22.3	4	9	270	0.00	29.790 
19:00	27.0	22.3	27.0	82	22.3	4	10	270	0.00	29.796 
19:05	26.9	22.2	26.9	82	22.2	4	7	270	0.00	29.796 
19:10	26.9	22.2	26.9	82	22.2	4	9	270	0.00	29.796 
19:15	26.7	22.0	26.7	82	22.0	4	7	270	0.00	29.805 
19:20	26.7	26.7	26.7	83	22.2	3	9	270	0.00	29.805 
19:25	26.7	26.7	26.7	83	22.2	3	6	270	0.00	29.805 
19:30	26.7	26.7	26.7	83	22.2	3	7	270	0.00	29.814 
19:35	26.7	26.7	26.7	84	22.5	3	6	270	0.00	29.814 
19:40	26.9	26.9	26.9	84	22.7	3	6	270	0.00	29.814 
19:45	26.9	26.9	26.9	84	22.7	2	6	270	0.00	29.821 
19:50	26.9	26.9	26.9	84	22.7	2	6	270	0.00	29.821 
19:55	26.9	26.9	26.9	84	22.7	2	5	270	0.00	29.821 
20:00	26.9	26.9	26.9	83	22.4	3	7	270	0.00	29.831 
20:05	27.0	27.0	27.0	83	22.5	3	6	270	0.00	29.831 
20:10	27.0	27.0	27.0	83	22.5	3	7	270	0.00	29.831 
20:15	27.0	27.0	27.0	83	22.5	3	7	270	0.00	29.835 
20:20	27.2	27.2	27.2	82	22.4	3	6	270	0.00	29.835 
20:25	27.2	27.2	27.2	82	22.4	3	5	270	0.00	29.835 
20:30	27.2	27.2	27.2	82	22.4	2	5	270	0.00	29.835 
20:35	27.2	27.2	27.2	82	22.4	3	6	270	0.00	29.835 
20:40	27.2	27.2	27.2	83	22.7	2	4	270	0.00	29.835 
20:45	27.2	27.2	27.2	83	22.7	3	6	270	0.00	29.837 
20:50	27.2	27.2	27.2	84	23.0	2	4	270	0.00	29.837 
20:55	27.0	27.0	27.0	84	22.8	2	6	248	0.00	29.837 
21:00	27.0	27.0	27.0	85	23.1	1	3	248	0.00	29.845 
21:05	26.9	26.9	26.9	85	23.0	2	7	248	0.00	29.845 
21:10	26.7	26.7	26.7	85	22.8	2	4	270	0.00	29.845 
21:15	26.7	26.7	26.7	84	22.5	3	7	270	0.00	29.848 
21:20	26.7	26.7	26.7	84	22.5	3	9	270	0.00	29.848 
21:25	26.7	26.7	26.7	84	22.5	2	6	270	0.00	29.848 
21:30	26.7	26.7	26.7	84	22.5	2	6	270	0.00	29.848 
21:35	26.6	26.6	26.6	85	22.7	2	5	248	0.00	29.848 
21:40	26.6	26.6	26.6	88	23.5	3	7	270	0.00	29.848 
21:45	26.4	26.4	26.4	84	22.2	3	7	248	0.00	29.849 
21:50	26.3	26.3	26.3	85	22.4	3	9	270	0.00	29.849 
21:55	26.3	26.3	26.3	84	22.1	3	6	248	0.00	29.849 
22:00	26.1	26.1	26.1	84	21.9	2	9	248	0.00	29.851 
22:05	26.0	26.0	26.0	84	21.8	3	8	270	0.00	29.851 
22:10	26.0	26.0	26.0	85	22.1	2	6	270	0.00	29.851 
22:15	26.0	26.0	26.0	85	22.1	3	7	248	0.00	29.854 
22:20	26.0	26.0	26.0	85	22.1	2	4	248	0.00	29.854 
22:25	26.0	26.0	26.0	85	22.1	2	7	248	0.00	29.854 
22:30	26.1	26.1	26.1	85	22.2	3	10	248	0.00	29.855 
22:35	26.1	26.1	26.1	85	22.2	3	6	248	0.00	29.855 
22:40	26.3	26.3	26.3	85	22.4	3	7	248	0.00	29.855 
22:45	26.3	26.3	26.3	85	22.4	3	9	248	0.00	29.858 
22:50	26.3	26.3	26.3	86	22.7	2	4	248	0.00	29.858 
22:55	26.4	26.4	26.4	86	22.8	2	9	248	0.00	29.858 
23:00	26.4	26.4	26.4	86	22.8	3	6	248	0.00	29.861 
23:05	26.4	26.4	26.4	86	22.8	2	6	248	0.00	29.861 
23:10	26.4	26.4	26.4	86	22.8	3	6	248	0.00	29.861 
23:15	26.4	26.4	26.4	86	22.8	3	7	248	0.00	29.857 
23:20	26.6	26.6	26.6	86	23.0	3	10	270	0.00	29.857 
23:25	26.6	26.6	26.6	86	23.0	3	6	270	0.00	29.857 
23:30	26.4	26.4	26.4	86	22.8	3	9	270	0.00	29.854 
23:35	26.4	26.4	26.4	85	22.5	2	7	248	0.00	29.854 
23:40	26.1	26.1	26.1	85	22.2	2	6	248	0.00	29.854 
23:45	26.0	26.0	26.0	85	22.1	2	6	248	0.00	29.856 
23:50	26.0	26.0	26.0	85	22.1	2	6	248	0.00	29.856 
23:55	26.0	26.0	26.0	85	22.1	3	6	248	0.00	29.856 

CoCoRaHS
IN-AL-39
A2 Web Hosting
Creative Commons License
GoDaddy
Look for:

loaded 2017-10-19 19:50:37 • last modified 2010-11-18 10:43:29
Privacy PolicyDisclaimer
• wx.awcolley.com is powered by PmWiki v.2002016 •
• all content (unless otherwise noted) © 2017 A W Colley